Current | Forecast
Updated: 4:30 PM +07 on August 20, 2017
Observed at Barnaul, Russia
Temperature 59°F
Humidity 63%
Dew Point 46°F
Wind WNW at 4 mph
Pressure 30.15 in (Steady)
Conditions Light Rain
Visibility 6.2 miles
UV 2 out of 16
Clouds Mostly Cloudy (BKN) : 4000 ft
Yesterday's Maximum 63°F
Yesterday's Minimum 52°F approx.
Yesterday's Heating Degree Days 8 approx.
Sunrise5:19 AM +06
Sunset7:46 PM +06
Moon Rise3:11 AM +06
Moon Set6:57 PM +06
Moon PhaseMoon Phase
Waning Crescent
Raw METARMETAR UNBB 200930Z 29002MPS 9999 -RA BKN040 15/08 Q1021 R24/190056 NOSIG RMK QFE743


Monday
. High: 57° F.
Tuesday
. High: 64° F.
Wednesday
. High: 68° F.
Thursday
. High: 66° F.
Friday
. High: 69° F.
Saturday
. High: 73° F.
Sunday
. High: 78° F.
Monday
. High: 71° F.

Units: English | Metric

Find the Weather for any City, State or Zipcode, or Country:

U.S. State List | Severe Weather | Tropical Storms | Ski Conditions
United States | Canada | Central America | South America | Asia | Europe | Australia | Africa | Islands

Weather Underground

© Copyright 2017
The Weather Company, LLC